createdAt,value
2018-06-05T00:01:04.532Z,21.77
2018-06-05T00:03:38.751Z,22.50
2018-06-05T00:06:12.853Z,20.90
2018-06-05T00:08:47.255Z,22.17
2018-06-05T00:11:21.458Z,21.80
2018-06-05T00:13:55.706Z,22.00
2018-06-05T00:16:30.070Z,22.63
2018-06-05T00:19:04.399Z,22.13
2018-06-05T00:21:38.818Z,23.30
2018-06-05T00:24:12.920Z,22.20
2018-06-05T00:26:47.295Z,22.63
2018-06-05T00:29:21.519Z,20.73
2018-06-05T00:31:55.818Z,21.17
2018-06-05T00:34:30.168Z,19.70
2018-06-05T00:37:04.599Z,19.17
2018-06-05T00:39:38.875Z,19.53
2018-06-05T00:42:13.227Z,19.97
2018-06-05T00:44:47.487Z,18.43
2018-06-05T00:47:21.646Z,17.90
2018-06-05T00:49:55.847Z,18.60
2018-06-05T00:52:30.203Z,17.87
2018-06-05T00:55:04.646Z,17.63
2018-06-05T00:57:38.900Z,18.63
2018-06-05T01:00:13.117Z,19.13
2018-06-05T01:02:47.464Z,19.30
2018-06-05T01:05:21.810Z,17.83
2018-06-05T01:07:56.151Z,18.13
2018-06-05T01:10:30.415Z,18.13
2018-06-05T01:13:04.816Z,17.57
2018-06-05T01:15:39.152Z,18.20
2018-06-05T01:18:13.462Z,18.47
2018-06-05T01:20:47.769Z,18.27
2018-06-05T01:23:22.142Z,18.53
2018-06-05T01:25:56.371Z,18.50
2018-06-05T01:28:30.695Z,18.17
2018-06-05T01:31:05.020Z,17.83
2018-06-05T01:33:39.426Z,17.70
2018-06-05T01:36:13.765Z,18.27
2018-06-05T01:38:48.121Z,17.43
2018-06-05T01:41:22.382Z,18.17
2018-06-05T01:43:56.612Z,17.47
2018-06-05T01:46:30.826Z,17.43
2018-06-05T01:49:05.104Z,16.53
2018-06-05T01:51:39.438Z,15.53
2018-06-05T01:54:13.799Z,15.47
2018-06-05T01:56:47.971Z,16.93
2018-06-05T01:59:22.275Z,15.17
2018-06-05T02:01:56.586Z,14.60
2018-06-05T02:04:30.938Z,14.23
2018-06-05T02:07:05.144Z,14.93
2018-06-05T02:09:39.351Z,15.33
2018-06-05T02:12:13.583Z,14.63
2018-06-05T02:14:48.028Z,15.13
2018-06-05T02:17:22.234Z,14.37
2018-06-05T02:19:56.444Z,14.10
2018-06-05T02:22:30.623Z,14.10
2018-06-05T02:25:05.114Z,14.77
2018-06-05T02:27:39.542Z,14.37
2018-06-05T02:30:13.921Z,14.20
2018-06-05T02:32:48.082Z,14.13
2018-06-05T02:35:22.410Z,14.70
2018-06-05T02:37:56.715Z,14.67
2018-06-05T02:40:31.104Z,14.70
2018-06-05T02:43:05.410Z,13.17
2018-06-05T02:45:39.701Z,14.00
2018-06-05T02:48:14.030Z,13.97
2018-06-05T02:50:48.242Z,14.80
2018-06-05T02:53:22.385Z,14.63
2018-06-05T02:55:56.675Z,14.50
2018-06-05T02:58:30.870Z,15.27
2018-06-05T03:01:05.077Z,14.40
2018-06-05T03:03:39.378Z,15.30
2018-06-05T03:06:13.594Z,15.50
2018-06-05T03:08:47.787Z,14.80
2018-06-05T03:11:22.021Z,17.53
2018-06-05T03:13:56.383Z,15.30
2018-06-05T03:16:30.774Z,16.67
2018-06-05T03:19:04.922Z,16.50
2018-06-05T03:21:39.262Z,15.97
2018-06-05T03:24:13.416Z,16.20
2018-06-05T03:26:47.832Z,15.20
2018-06-05T03:29:22.061Z,15.50
2018-06-05T03:31:56.478Z,14.63
2018-06-05T03:34:30.800Z,15.97
2018-06-05T03:37:05.095Z,16.23
2018-06-05T03:39:39.417Z,15.53
2018-06-05T03:42:13.722Z,16.17
2018-06-05T03:44:48.124Z,14.90
2018-06-05T03:47:22.385Z,15.43
2018-06-05T03:49:56.693Z,15.33
2018-06-05T03:52:31.126Z,15.67
2018-06-05T03:55:05.450Z,15.93
2018-06-05T03:57:39.625Z,16.83
2018-06-05T04:00:14.011Z,15.97
2018-06-05T04:02:48.318Z,16.87
2018-06-05T04:05:22.699Z,15.60
2018-06-05T04:07:56.895Z,16.17
2018-06-05T04:10:31.264Z,18.50
2018-06-05T04:13:05.684Z,15.97
2018-06-05T04:15:39.964Z,16.30
2018-06-05T04:18:14.181Z,15.73
2018-06-05T04:20:48.466Z,15.63
2018-06-05T04:23:22.639Z,14.73
2018-06-05T04:25:56.942Z,15.00
2018-06-05T04:28:31.213Z,16.20
2018-06-05T04:31:05.452Z,15.93
2018-06-05T04:33:39.945Z,16.80
2018-06-05T04:36:14.233Z,15.53
2018-06-05T04:38:48.618Z,16.47
2018-06-05T04:41:22.802Z,16.90
2018-06-05T04:43:57.187Z,16.60
2018-06-05T04:46:31.478Z,15.93
2018-06-05T04:49:05.789Z,15.43
2018-06-05T04:51:40.056Z,15.97
2018-06-05T04:54:14.227Z,17.10
2018-06-05T04:56:48.450Z,16.93
2018-06-05T04:59:22.710Z,16.17
2018-06-05T05:01:57.007Z,16.80
2018-06-05T05:04:31.460Z,16.97
2018-06-05T05:07:05.810Z,16.10
2018-06-05T05:09:40.164Z,16.57
2018-06-05T05:12:14.432Z,16.10
2018-06-05T05:14:48.752Z,16.27
2018-06-05T05:17:22.974Z,16.80
2018-06-05T05:19:57.337Z,15.90
2018-06-05T05:22:31.631Z,16.47
2018-06-05T05:25:05.886Z,16.77
2018-06-05T05:27:40.092Z,16.67
2018-06-05T05:30:14.331Z,16.63
2018-06-05T05:32:48.719Z,16.20
2018-06-05T05:35:23.000Z,15.77
2018-06-05T05:37:57.258Z,15.87
2018-06-05T05:40:31.656Z,16.53
2018-06-05T05:43:05.669Z,15.77
2018-06-05T05:45:40.006Z,15.90
2018-06-05T05:48:14.416Z,15.37
2018-06-05T05:50:48.584Z,16.33
2018-06-05T05:53:22.878Z,16.13
2018-06-05T05:55:57.195Z,15.57
2018-06-05T05:58:31.550Z,15.77
2018-06-05T06:01:05.818Z,15.17
2018-06-05T06:03:40.310Z,16.77
2018-06-05T06:06:14.529Z,16.27
2018-06-05T06:08:48.817Z,17.23
2018-06-05T06:11:22.975Z,16.53
2018-06-05T06:13:57.397Z,18.10
2018-06-05T06:16:31.721Z,15.90
2018-06-05T06:19:06.141Z,15.20
2018-06-05T06:21:40.282Z,15.57
2018-06-05T06:24:14.486Z,15.53
2018-06-05T06:26:48.743Z,15.23
2018-06-05T06:29:23.007Z,15.67
2018-06-05T06:31:57.312Z,15.10
2018-06-05T06:34:31.573Z,15.60
2018-06-05T06:37:05.954Z,15.63
2018-06-05T06:39:40.128Z,16.00
2018-06-05T06:42:14.275Z,15.90
2018-06-05T06:44:48.435Z,16.40
2018-06-05T06:47:22.626Z,15.97
2018-06-05T06:49:56.931Z,17.03
2018-06-05T06:52:31.096Z,15.40
2018-06-05T06:55:05.387Z,16.57
2018-06-05T06:57:39.592Z,16.20
2018-06-05T07:00:13.924Z,16.00
2018-06-05T07:02:48.205Z,16.30
2018-06-05T07:05:22.554Z,16.17
2018-06-05T07:07:56.797Z,16.80
2018-06-05T07:10:31.011Z,16.13
2018-06-05T07:13:05.113Z,14.83
2018-06-05T07:15:39.270Z,16.10
2018-06-05T07:18:13.529Z,15.10
2018-06-05T07:20:47.787Z,15.33
2018-06-05T07:23:22.011Z,15.97
2018-06-05T07:25:56.220Z,15.67
2018-06-05T07:28:30.508Z,16.33
2018-06-05T07:31:04.875Z,16.13
2018-06-05T07:33:39.138Z,16.03
2018-06-05T07:36:13.494Z,16.20
2018-06-05T07:38:47.683Z,16.00
2018-06-05T07:41:22.135Z,15.43
2018-06-05T07:43:56.432Z,16.43
2018-06-05T07:46:30.704Z,16.33
2018-06-05T07:49:05.003Z,16.70
2018-06-05T07:51:39.240Z,15.13
2018-06-05T07:54:13.536Z,16.20
2018-06-05T07:56:47.898Z,17.47
2018-06-05T07:59:22.130Z,15.67
2018-06-05T08:01:56.306Z,15.03
2018-06-05T08:04:30.457Z,16.77
2018-06-05T08:07:04.695Z,16.53
2018-06-05T08:09:38.974Z,16.23
2018-06-05T08:12:13.374Z,17.00
2018-06-05T08:14:47.687Z,16.47
2018-06-05T08:17:22.119Z,17.17
2018-06-05T08:19:56.454Z,17.00
2018-06-05T08:22:40.963Z,17.23
2018-06-05T08:25:15.300Z,15.97
2018-06-05T08:27:49.472Z,16.20
2018-06-05T08:30:23.704Z,16.30
2018-06-05T08:32:57.990Z,15.57
2018-06-05T08:35:32.213Z,16.60
2018-06-05T08:38:06.535Z,16.33
2018-06-05T08:40:41.007Z,15.90
2018-06-05T08:43:15.299Z,16.83
2018-06-05T08:45:49.622Z,15.97
2018-06-05T08:48:23.942Z,17.40
2018-06-05T08:50:58.262Z,15.70
2018-06-05T08:53:32.498Z,15.80
2018-06-05T08:56:06.763Z,16.67
2018-06-05T08:58:41.027Z,15.57
2018-06-05T09:01:15.298Z,12.87
2018-06-05T09:03:49.629Z,13.83
2018-06-05T09:06:23.878Z,12.43
2018-06-05T09:08:58.084Z,12.07
2018-06-05T09:11:32.364Z,12.20
2018-06-05T09:14:06.550Z,11.90
2018-06-05T09:16:40.858Z,12.47
2018-06-05T09:19:15.282Z,11.23
2018-06-05T09:21:49.598Z,11.63
2018-06-05T09:24:23.897Z,12.07
2018-06-05T09:26:58.115Z,11.77
2018-06-05T09:29:32.175Z,12.43
2018-06-05T09:32:06.446Z,12.67
2018-06-05T09:34:40.727Z,11.77
2018-06-05T09:37:15.074Z,12.93
2018-06-05T09:39:49.387Z,11.60
2018-06-05T09:42:23.698Z,13.63
2018-06-05T09:44:57.943Z,12.80
2018-06-05T09:47:32.139Z,12.17
2018-06-05T09:50:06.439Z,12.60
2018-06-05T09:52:40.849Z,13.13
2018-06-05T09:55:15.011Z,12.80
2018-06-05T09:57:49.334Z,13.73
2018-06-05T10:00:28.926Z,13.50
2018-06-05T10:03:03.087Z,12.73
2018-06-05T10:05:37.502Z,13.07
2018-06-05T10:08:11.866Z,12.93
2018-06-05T10:10:46.120Z,13.50
2018-06-05T10:13:20.403Z,14.37
2018-06-05T10:15:54.698Z,13.70
2018-06-05T10:18:29.066Z,14.17
2018-06-05T10:21:03.382Z,14.47
2018-06-05T10:23:37.543Z,14.43
2018-06-05T10:26:12.032Z,14.20
2018-06-05T10:28:46.437Z,13.77
2018-06-05T10:31:20.627Z,14.90
2018-06-05T10:33:54.831Z,15.27
2018-06-05T10:36:29.084Z,13.87
2018-06-05T10:39:03.450Z,14.77
2018-06-05T10:41:37.595Z,14.40
2018-06-05T10:44:11.951Z,13.97
2018-06-05T10:46:46.164Z,12.57
2018-06-05T10:49:20.450Z,14.27
2018-06-05T10:51:54.827Z,14.50
2018-06-05T10:54:29.171Z,14.10
2018-06-05T10:57:03.483Z,14.57
2018-06-05T10:59:37.613Z,14.50
2018-06-05T11:02:11.733Z,13.83
2018-06-05T11:04:45.886Z,13.30
2018-06-05T11:07:20.277Z,13.77
2018-06-05T11:09:54.600Z,13.73
2018-06-05T11:12:28.875Z,12.67
2018-06-05T11:15:03.280Z,13.13
2018-06-05T11:17:37.525Z,13.53
2018-06-05T11:20:11.855Z,13.40
2018-06-05T11:22:46.130Z,12.47
2018-06-05T11:25:20.445Z,13.83
2018-06-05T11:27:54.654Z,13.33
2018-06-05T11:30:28.933Z,13.37
2018-06-05T11:33:03.391Z,14.03
2018-06-05T11:35:37.794Z,13.50
2018-06-05T11:38:12.107Z,13.60
2018-06-05T11:40:46.389Z,13.30
2018-06-05T11:43:20.731Z,13.53
2018-06-05T11:45:55.027Z,12.27
2018-06-05T11:48:29.395Z,13.30
2018-06-05T11:51:03.686Z,11.93
2018-06-05T11:53:38.043Z,12.50
2018-06-05T11:56:12.247Z,12.77
2018-06-05T11:58:46.573Z,13.67
2018-06-05T12:01:20.919Z,13.60
2018-06-05T12:03:55.137Z,13.50
2018-06-05T12:06:29.217Z,14.27
2018-06-05T12:09:03.610Z,13.40
2018-06-05T12:11:37.739Z,14.40
2018-06-05T12:14:12.094Z,13.87
2018-06-05T12:16:46.243Z,14.00
2018-06-05T12:19:20.672Z,13.40
2018-06-05T12:21:54.927Z,14.03
2018-06-05T12:24:29.387Z,13.20
2018-06-05T12:27:03.713Z,12.87
2018-06-05T12:29:38.077Z,13.20
2018-06-05T12:32:12.434Z,12.43
2018-06-05T12:34:46.778Z,13.17
2018-06-05T12:37:21.076Z,12.90
2018-06-05T12:39:55.258Z,13.37
2018-06-05T12:42:29.503Z,13.03
2018-06-05T12:45:03.790Z,12.67
2018-06-05T12:47:38.170Z,13.40
2018-06-05T12:50:12.482Z,12.23
2018-06-05T12:52:46.827Z,11.97
2018-06-05T12:55:22.690Z,12.50
2018-06-05T12:57:57.070Z,12.97
2018-06-05T13:00:31.361Z,12.03
2018-06-05T13:03:05.696Z,12.43
2018-06-05T13:05:40.071Z,13.40
2018-06-05T13:08:14.323Z,13.10
2018-06-05T13:10:48.654Z,12.53
2018-06-05T13:13:22.823Z,12.53
2018-06-05T13:15:57.316Z,11.23
2018-06-05T13:18:31.702Z,12.53
2018-06-05T13:21:06.343Z,13.40
2018-06-05T13:23:40.880Z,12.87
2018-06-05T13:26:15.550Z,12.93
2018-06-05T13:28:49.850Z,12.30
2018-06-05T13:31:24.126Z,11.33
2018-06-05T13:33:58.333Z,12.03
2018-06-05T13:36:32.700Z,12.63
2018-06-05T13:39:08.418Z,12.40
2018-06-05T13:41:42.658Z,16.43
2018-06-05T13:44:16.831Z,12.00
2018-06-05T13:46:51.075Z,13.27
2018-06-05T13:49:25.313Z,15.07
2018-06-05T13:51:59.417Z,13.80
2018-06-05T13:54:33.710Z,12.23
2018-06-05T13:57:08.014Z,14.03
2018-06-05T13:59:42.316Z,12.63
2018-06-05T14:02:16.618Z,12.70
2018-06-05T14:04:51.008Z,13.43
2018-06-05T14:07:25.363Z,13.17
2018-06-05T14:09:59.871Z,12.80
2018-06-05T14:12:34.203Z,13.43
2018-06-05T14:15:08.410Z,13.00
2018-06-05T14:17:42.723Z,14.97
2018-06-05T14:20:16.930Z,12.93
2018-06-05T14:22:51.238Z,16.23
2018-06-05T14:25:25.587Z,17.00
2018-06-05T14:27:59.918Z,12.97
2018-06-05T14:30:34.154Z,13.27
2018-06-05T14:33:08.499Z,13.67
2018-06-05T14:35:42.698Z,14.13
2018-06-05T14:38:16.925Z,14.70
2018-06-05T14:40:51.321Z,15.80
2018-06-05T14:43:25.762Z,14.33
2018-06-05T14:46:00.171Z,12.97
2018-06-05T14:48:34.581Z,14.20
2018-06-05T14:51:08.783Z,12.00
2018-06-05T14:53:43.045Z,12.77
2018-06-05T14:56:17.458Z,13.73
2018-06-05T14:58:51.795Z,14.87
2018-06-05T15:01:26.122Z,13.40
2018-06-05T15:04:00.362Z,12.73
2018-06-05T15:06:34.690Z,13.90
2018-06-05T15:09:09.149Z,14.07
2018-06-05T15:11:43.378Z,15.30
2018-06-05T15:14:17.661Z,15.17
2018-06-05T15:16:51.866Z,15.87
2018-06-05T15:19:26.138Z,14.33
2018-06-05T15:22:01.190Z,14.27
2018-06-05T15:24:35.701Z,15.57
2018-06-05T15:27:09.996Z,13.57
2018-06-05T15:29:44.319Z,12.93
2018-06-05T15:32:18.618Z,16.10
2018-06-05T15:34:53.006Z,15.80
2018-06-05T15:37:27.318Z,15.90
2018-06-05T15:40:01.646Z,14.37
2018-06-05T15:42:36.227Z,17.03
2018-06-05T15:45:10.693Z,14.03
2018-06-05T15:47:45.023Z,15.43
2018-06-05T15:50:19.226Z,15.17
2018-06-05T15:52:53.443Z,14.27
2018-06-05T15:55:27.794Z,13.17
2018-06-05T15:58:02.092Z,14.93
2018-06-05T16:00:36.397Z,14.33
2018-06-05T16:03:10.803Z,13.03
2018-06-05T16:05:45.128Z,13.43
2018-06-05T16:08:19.390Z,14.03
2018-06-05T16:10:53.704Z,12.53
2018-06-05T16:13:28.054Z,14.10
2018-06-05T16:16:02.274Z,13.17
2018-06-05T16:18:36.616Z,14.40
2018-06-05T16:21:10.927Z,14.40
2018-06-05T16:23:45.468Z,13.80
2018-06-05T16:26:19.907Z,12.07
2018-06-05T16:28:53.858Z,19.57
2018-06-05T16:31:28.218Z,14.00
2018-06-05T16:34:02.466Z,13.77
2018-06-05T16:36:36.758Z,13.73
2018-06-05T16:39:11.129Z,37.67
2018-06-05T16:41:45.570Z,14.53
2018-06-05T16:44:19.902Z,14.63
2018-06-05T16:46:54.114Z,13.60
2018-06-05T16:49:28.342Z,15.73
2018-06-05T16:52:02.774Z,12.20
2018-06-05T16:54:37.371Z,12.10
2018-06-05T16:57:11.667Z,13.53
2018-06-05T16:59:45.824Z,13.30
2018-06-05T17:02:20.099Z,13.27
2018-06-05T17:04:54.409Z,14.83
2018-06-05T17:07:28.746Z,15.10
2018-06-05T17:10:03.072Z,13.67
2018-06-05T17:12:37.409Z,13.90
2018-06-05T17:15:11.592Z,13.37
2018-06-05T17:17:45.862Z,12.43
2018-06-05T17:20:20.112Z,14.00
2018-06-05T17:22:54.435Z,12.63
2018-06-05T17:25:28.704Z,13.97
2018-06-05T17:28:02.733Z,12.60
2018-06-05T17:30:37.158Z,13.87
2018-06-05T17:33:11.641Z,12.97
2018-06-05T17:35:45.894Z,13.23
2018-06-05T17:38:20.186Z,12.10
2018-06-05T17:40:54.507Z,15.27
2018-06-05T17:43:28.835Z,13.43
2018-06-05T17:46:03.175Z,12.20
2018-06-05T17:48:37.454Z,12.83
2018-06-05T17:51:11.700Z,13.27
2018-06-05T17:53:46.059Z,11.80
2018-06-05T17:56:20.217Z,12.67
2018-06-05T17:58:54.542Z,13.03
2018-06-05T18:01:28.795Z,12.63
2018-06-05T18:04:02.917Z,12.33
2018-06-05T18:06:37.162Z,12.47
2018-06-05T18:09:11.489Z,13.07
2018-06-05T18:11:45.809Z,12.73
2018-06-05T18:14:20.118Z,12.30
2018-06-05T18:16:54.403Z,11.70
2018-06-05T18:19:28.727Z,12.33
2018-06-05T18:22:03.190Z,11.50
2018-06-05T18:24:37.408Z,12.60
2018-06-05T18:27:11.693Z,12.47
2018-06-05T18:29:45.994Z,12.70
2018-06-05T18:32:20.615Z,11.47
2018-06-05T18:34:54.999Z,11.83
2018-06-05T18:37:29.260Z,11.47
2018-06-05T18:40:03.602Z,12.37
2018-06-05T18:42:37.914Z,12.33
2018-06-05T18:45:12.131Z,12.37
2018-06-05T18:47:46.565Z,12.73
2018-06-05T18:50:21.206Z,12.87
2018-06-05T18:52:55.803Z,13.33
2018-06-05T18:55:30.028Z,12.47
2018-06-05T18:58:04.455Z,11.87
2018-06-05T19:00:38.795Z,11.57
2018-06-05T19:03:13.275Z,11.30
2018-06-05T19:05:47.595Z,12.53
2018-06-05T19:08:21.910Z,12.73
2018-06-05T19:10:56.053Z,12.70
2018-06-05T19:13:30.374Z,12.43
2018-06-05T19:16:04.803Z,12.93
2018-06-05T19:18:39.158Z,12.50
2018-06-05T19:21:13.451Z,11.60
2018-06-05T19:23:47.892Z,13.03
2018-06-05T19:26:22.396Z,11.97
2018-06-05T19:28:56.584Z,11.53
2018-06-05T19:31:30.907Z,12.93
2018-06-05T19:34:05.333Z,11.83
2018-06-05T19:36:39.654Z,13.73
2018-06-05T19:39:13.955Z,12.90
2018-06-05T19:41:48.404Z,12.80
2018-06-05T19:44:22.795Z,13.10
2018-06-05T19:46:57.116Z,14.30
2018-06-05T19:49:31.607Z,13.73
2018-06-05T19:52:05.897Z,13.73
2018-06-05T19:54:40.266Z,13.80
2018-06-05T19:57:14.617Z,13.53
2018-06-05T19:59:48.868Z,13.93
2018-06-05T20:02:23.135Z,14.43
2018-06-05T20:04:57.382Z,15.35
2018-06-05T20:07:31.578Z,15.13
2018-06-05T20:10:05.933Z,13.73
2018-06-05T20:12:40.014Z,14.10
2018-06-05T20:15:14.446Z,14.27
2018-06-05T20:17:48.775Z,14.73
2018-06-05T20:20:23.053Z,14.20
2018-06-05T20:22:57.338Z,14.33
2018-06-05T20:25:31.550Z,13.90
2018-06-05T20:28:05.876Z,14.43
2018-06-05T20:30:40.187Z,13.73
2018-06-05T20:33:14.499Z,15.20
2018-06-05T20:35:48.566Z,15.20
2018-06-05T20:38:22.777Z,15.17
2018-06-05T20:40:56.968Z,16.03
2018-06-05T20:43:31.330Z,15.43
2018-06-05T20:46:05.749Z,16.27
2018-06-05T20:48:40.151Z,15.37
2018-06-05T20:51:14.483Z,15.87
2018-06-05T20:53:48.826Z,15.77
2018-06-05T20:56:23.072Z,15.37
2018-06-05T20:58:57.378Z,15.97
2018-06-05T21:01:31.723Z,15.90
2018-06-05T21:04:05.767Z,15.43
2018-06-05T21:06:40.115Z,16.00
2018-06-05T21:09:14.418Z,15.87
2018-06-05T21:11:48.784Z,14.53
2018-06-05T21:14:23.043Z,15.03
2018-06-05T21:16:57.340Z,14.47
2018-06-05T21:19:31.669Z,14.57
2018-06-05T21:22:06.069Z,14.27
2018-06-05T21:24:40.418Z,14.53
2018-06-05T21:27:14.641Z,14.67
2018-06-05T21:29:49.003Z,14.97
2018-06-05T21:32:23.419Z,13.27
2018-06-05T21:34:57.771Z,14.13
2018-06-05T21:37:32.018Z,14.43
2018-06-05T21:40:07.057Z,14.90
2018-06-05T21:42:42.638Z,14.13
2018-06-05T21:45:16.889Z,13.30
2018-06-05T21:47:51.314Z,12.73
2018-06-05T21:50:25.574Z,12.90
2018-06-05T21:52:59.855Z,13.27
2018-06-05T21:55:34.231Z,13.87
2018-06-05T21:58:08.451Z,12.77
2018-06-05T22:00:42.812Z,14.13
2018-06-05T22:03:17.127Z,13.93
2018-06-05T22:05:51.486Z,12.03
2018-06-05T22:08:25.754Z,14.30
2018-06-05T22:10:59.999Z,15.03
2018-06-05T22:13:34.150Z,12.17
2018-06-05T22:16:08.665Z,12.97
2018-06-05T22:18:42.837Z,12.30
2018-06-05T22:21:17.266Z,11.53
2018-06-05T22:23:51.562Z,12.10
2018-06-05T22:26:25.795Z,12.97
2018-06-05T22:29:00.104Z,11.63
2018-06-05T22:31:34.415Z,11.30
2018-06-05T22:34:08.600Z,10.77
2018-06-05T22:36:42.767Z,10.80
2018-06-05T22:39:17.217Z,10.13
2018-06-05T22:41:51.528Z,10.70
2018-06-05T22:44:25.737Z,9.80
2018-06-05T22:47:06.780Z,10.40
2018-06-05T22:49:41.250Z,10.87
2018-06-05T22:52:15.605Z,10.20
2018-06-05T22:54:49.925Z,9.60
2018-06-05T22:57:24.468Z,9.67
2018-06-05T22:59:59.162Z,9.50
2018-06-05T23:02:33.319Z,9.50
2018-06-05T23:05:07.868Z,8.83
2018-06-05T23:07:42.036Z,8.70
2018-06-05T23:10:16.439Z,10.47
2018-06-05T23:12:50.806Z,8.80
2018-06-05T23:15:25.355Z,9.20
2018-06-05T23:17:59.538Z,8.53
2018-06-05T23:20:33.863Z,9.57
2018-06-05T23:23:08.142Z,9.23
2018-06-05T23:25:42.510Z,9.33
2018-06-05T23:28:16.892Z,9.03
2018-06-05T23:30:51.274Z,8.87
2018-06-05T23:33:25.523Z,9.07
2018-06-05T23:35:59.795Z,8.77
2018-06-05T23:38:34.093Z,8.30
2018-06-05T23:41:08.529Z,9.00
2018-06-05T23:43:42.899Z,9.50
2018-06-05T23:46:18.458Z,9.60
2018-06-05T23:48:52.598Z,9.57
2018-06-05T23:51:27.011Z,9.30
2018-06-05T23:54:01.241Z,9.53
2018-06-05T23:56:35.387Z,9.00
2018-06-05T23:59:10.143Z,8.73
